createdAt,value
2023-02-25T00:01:54.389Z,99671.28
2023-02-25T00:04:29.046Z,99664.16
2023-02-25T00:06:57.263Z,99652.53
2023-02-25T00:09:25.306Z,99650.00
2023-02-25T00:11:53.603Z,99648.09
2023-02-25T00:14:21.466Z,99641.72
2023-02-25T00:16:50.223Z,99635.56
2023-02-25T00:19:18.113Z,99635.06
2023-02-25T00:21:46.353Z,99628.72
2023-02-25T00:24:16.817Z,99630.22
2023-02-25T00:26:45.543Z,99618.38
2023-02-25T00:29:15.192Z,99617.00
2023-02-25T00:31:43.807Z,99619.56
2023-02-25T00:34:11.855Z,99615.25
2023-02-25T00:36:40.194Z,99613.44
2023-02-25T00:39:09.473Z,99606.97
2023-02-25T00:41:37.828Z,99605.03
2023-02-25T00:44:05.828Z,99605.81
2023-02-25T00:46:34.946Z,99595.63
2023-02-25T00:49:03.077Z,99593.19
2023-02-25T00:51:32.797Z,99584.28
2023-02-25T00:54:00.917Z,99581.31
2023-02-25T00:56:29.099Z,99583.44
2023-02-25T00:58:56.976Z,99565.56
2023-02-25T01:01:28.288Z,99563.09
2023-02-25T01:03:57.504Z,99560.44
2023-02-25T01:06:27.779Z,99557.34
2023-02-25T01:08:57.072Z,99553.53
2023-02-25T01:11:30.978Z,99548.09
2023-02-25T01:14:02.199Z,99547.22
2023-02-25T01:16:32.973Z,99537.94
2023-02-25T01:19:05.146Z,99532.47
2023-02-25T01:21:37.193Z,99529.13
2023-02-25T01:24:23.762Z,99523.66
2023-02-25T01:26:54.782Z,99533.53
2023-02-25T01:29:48.891Z,99516.28
2023-02-25T01:32:18.117Z,99513.34
2023-02-25T01:34:46.011Z,99505.06
2023-02-25T01:37:15.942Z,99506.44
2023-02-25T01:39:43.773Z,99496.50
2023-02-25T01:42:16.269Z,99494.53
2023-02-25T01:45:23.498Z,99488.03
2023-02-25T01:48:03.698Z,99479.03
2023-02-25T01:50:42.277Z,99477.25
2023-02-25T01:53:10.530Z,99470.59
2023-02-25T01:55:41.097Z,99470.44
2023-02-25T01:58:12.532Z,99456.13
2023-02-25T02:00:41.239Z,99448.53
2023-02-25T02:03:17.282Z,99437.94
2023-02-25T02:06:00.030Z,99434.22
2023-02-25T02:08:29.060Z,99431.22
2023-02-25T02:10:58.098Z,99423.56
2023-02-25T02:13:26.356Z,99423.19
2023-02-25T02:16:19.328Z,99425.88
2023-02-25T02:18:57.378Z,99417.16
2023-02-25T02:21:57.448Z,99411.97
2023-02-25T02:24:47.661Z,99406.13
2023-02-25T02:27:27.677Z,99405.94
2023-02-25T02:30:26.310Z,99403.72
2023-02-25T02:33:04.577Z,99416.22
2023-02-25T02:36:00.641Z,99416.44
2023-02-25T02:38:42.428Z,99410.88
2023-02-25T02:41:14.508Z,99407.41
2023-02-25T02:43:52.675Z,99403.69
2023-02-25T02:46:29.407Z,99402.81
2023-02-25T02:49:04.621Z,99415.38
2023-02-25T02:51:40.144Z,99407.63
2023-02-25T02:54:12.182Z,99396.84
2023-02-25T02:56:44.452Z,99397.38
2023-02-25T02:59:28.386Z,99396.78
2023-02-25T03:02:10.200Z,99403.97
2023-02-25T03:04:42.067Z,99414.19
2023-02-25T03:07:12.952Z,99411.28
2023-02-25T03:09:50.648Z,99404.16
2023-02-25T03:12:19.731Z,99404.22
2023-02-25T03:14:48.697Z,99409.63
2023-02-25T03:17:26.460Z,99393.69
2023-02-25T03:20:28.449Z,99396.69
2023-02-25T03:23:01.821Z,99383.63
2023-02-25T03:25:38.374Z,99377.03
2023-02-25T03:28:21.867Z,99380.56
2023-02-25T03:31:08.222Z,99377.69
2023-02-25T03:33:48.994Z,99382.22
2023-02-25T03:36:26.579Z,99384.06
2023-02-25T03:39:03.071Z,99377.97
2023-02-25T03:41:36.724Z,99370.06
2023-02-25T03:44:14.359Z,99374.50
2023-02-25T03:46:45.012Z,99377.31
2023-02-25T03:49:19.672Z,99366.47
2023-02-25T03:51:50.973Z,99371.22
2023-02-25T03:54:19.547Z,99366.25
2023-02-25T03:56:51.547Z,99373.06
2023-02-25T03:59:26.378Z,99361.53
2023-02-25T04:01:56.823Z,99356.97
2023-02-25T04:04:25.296Z,99365.84
2023-02-25T04:06:53.223Z,99362.31
2023-02-25T04:09:21.624Z,99362.00
2023-02-25T04:11:49.493Z,99364.50
2023-02-25T04:14:18.746Z,99363.41
2023-02-25T04:16:47.609Z,99354.22
2023-02-25T04:19:15.801Z,99356.00
2023-02-25T04:21:44.042Z,99364.88
2023-02-25T04:24:12.125Z,99356.69
2023-02-25T04:26:39.955Z,99358.53
2023-02-25T04:29:08.424Z,99353.22
2023-02-25T04:31:36.291Z,99353.63
2023-02-25T04:34:04.413Z,99358.06
2023-02-25T04:36:35.036Z,99368.31
2023-02-25T04:39:05.712Z,99375.19
2023-02-25T04:41:36.046Z,99372.09
2023-02-25T04:44:06.874Z,99382.38
2023-02-25T04:46:40.247Z,99376.13
2023-02-25T04:49:09.622Z,99375.94
2023-02-25T04:51:38.869Z,99371.97
2023-02-25T04:54:06.991Z,99376.75
2023-02-25T04:56:34.727Z,99370.88
2023-02-25T04:59:02.873Z,99378.69
2023-02-25T05:01:32.708Z,99375.47
2023-02-25T05:04:00.889Z,99371.50
2023-02-25T05:06:28.713Z,99370.66
2023-02-25T05:08:57.906Z,99367.34
2023-02-25T05:11:28.314Z,99356.31
2023-02-25T05:13:57.621Z,99352.94
2023-02-25T05:16:26.860Z,99358.66
2023-02-25T05:18:55.556Z,99352.25
2023-02-25T05:21:25.493Z,99362.00
2023-02-25T05:23:54.438Z,99359.31
2023-02-25T05:26:24.784Z,99361.31
2023-02-25T05:28:55.433Z,99356.75
2023-02-25T05:31:25.116Z,99357.38
2023-02-25T05:33:53.961Z,99357.69
2023-02-25T05:36:24.022Z,99349.19
2023-02-25T05:38:55.476Z,99341.09
2023-02-25T05:41:23.304Z,99341.31
2023-02-25T05:43:51.420Z,99331.69
2023-02-25T05:46:19.159Z,99321.31
2023-02-25T05:48:47.307Z,99319.38
2023-02-25T05:51:18.458Z,99317.94
2023-02-25T05:53:48.154Z,99322.75
2023-02-25T05:56:19.179Z,99316.34
2023-02-25T05:58:48.720Z,99320.03
2023-02-25T06:01:22.938Z,99316.78
2023-02-25T06:03:58.873Z,99313.78
2023-02-25T06:06:29.516Z,99310.88
2023-02-25T06:08:58.269Z,99311.88
2023-02-25T06:11:29.312Z,99309.22
2023-02-25T06:13:58.999Z,99306.19
2023-02-25T06:16:33.132Z,99308.03
2023-02-25T06:19:02.063Z,99312.19
2023-02-25T06:21:30.887Z,99317.31
2023-02-25T06:23:59.247Z,99310.63
2023-02-25T06:26:27.273Z,99313.34
2023-02-25T06:28:56.732Z,99313.63
2023-02-25T06:31:25.388Z,99315.72
2023-02-25T06:33:55.211Z,99315.00
2023-02-25T06:36:23.647Z,99317.88
2023-02-25T06:38:51.914Z,99307.44
2023-02-25T06:41:21.454Z,99306.84
2023-02-25T06:43:52.356Z,99307.09
2023-02-25T06:46:24.408Z,99302.88
2023-02-25T06:48:53.625Z,99302.94
2023-02-25T06:51:22.238Z,99309.09
2023-02-25T06:53:51.406Z,99311.88
2023-02-25T06:56:20.612Z,99310.13
2023-02-25T06:58:48.811Z,99309.47
2023-02-25T07:01:17.092Z,99315.69
2023-02-25T07:03:45.322Z,99315.41
2023-02-25T07:06:16.635Z,99312.28
2023-02-25T07:08:46.066Z,99312.13
2023-02-25T07:11:19.640Z,99311.31
2023-02-25T07:13:49.275Z,99310.19
2023-02-25T07:16:17.872Z,99300.63
2023-02-25T07:18:46.135Z,99297.22
2023-02-25T07:21:16.121Z,99291.31
2023-02-25T07:23:44.988Z,99297.44
2023-02-25T07:26:14.382Z,99298.88
2023-02-25T07:28:43.754Z,99300.44
2023-02-25T07:31:14.358Z,99295.81
2023-02-25T07:33:43.420Z,99301.38
2023-02-25T07:36:12.442Z,99287.13
2023-02-25T07:38:41.234Z,99288.66
2023-02-25T07:41:12.316Z,99278.88
2023-02-25T07:43:41.161Z,99276.84
2023-02-25T07:46:09.839Z,99279.91
2023-02-25T07:48:37.996Z,99266.31
2023-02-25T07:51:18.814Z,99268.25
2023-02-25T07:53:48.177Z,99265.81
2023-02-25T07:56:16.953Z,99257.66
2023-02-25T07:58:45.514Z,99244.72
2023-02-25T08:01:20.091Z,99246.22
2023-02-25T08:03:49.328Z,99250.81
2023-02-25T08:06:17.174Z,99243.69
2023-02-25T08:08:45.682Z,99242.63
2023-02-25T08:11:15.040Z,99238.13
2023-02-25T08:13:43.447Z,99232.72
2023-02-25T08:16:14.502Z,99244.41
2023-02-25T08:18:43.036Z,99231.38
2023-02-25T08:21:12.601Z,99221.28
2023-02-25T08:23:41.289Z,99220.34
2023-02-25T08:26:12.394Z,99213.19
2023-02-25T08:28:40.786Z,99217.31
2023-02-25T08:31:12.126Z,99201.00
2023-02-25T08:33:43.748Z,99211.66
2023-02-25T08:36:20.876Z,99207.72
2023-02-25T08:38:50.446Z,99212.66
2023-02-25T08:41:20.104Z,99207.00
2023-02-25T08:43:52.204Z,99210.25
2023-02-25T08:46:22.689Z,99201.81
2023-02-25T08:48:53.134Z,99202.81
2023-02-25T08:51:23.621Z,99197.63
2023-02-25T08:53:52.481Z,99197.94
2023-02-25T08:56:20.480Z,99196.22
2023-02-25T08:58:48.705Z,99207.06
2023-02-25T09:01:18.055Z,99197.69
2023-02-25T09:03:54.197Z,99200.75
2023-02-25T09:06:24.948Z,99200.25
2023-02-25T09:08:54.792Z,99199.19
2023-02-25T09:11:24.282Z,99201.47
2023-02-25T09:13:54.425Z,99182.94
2023-02-25T09:16:22.418Z,99196.47
2023-02-25T09:18:51.915Z,99193.38
2023-02-25T09:21:21.508Z,99188.28
2023-02-25T09:23:53.352Z,99183.00
2023-02-25T09:26:22.039Z,99180.38
2023-02-25T09:28:50.918Z,99177.34
2023-02-25T09:31:19.576Z,99172.03
2023-02-25T09:33:48.146Z,99178.25
2023-02-25T09:36:18.457Z,99176.06
2023-02-25T09:38:48.722Z,99180.28
2023-02-25T09:41:35.086Z,99176.78
2023-02-25T09:44:29.174Z,99173.88
2023-02-25T09:47:05.583Z,99150.22
2023-02-25T09:50:03.490Z,99153.13
2023-02-25T09:52:32.828Z,99153.56
2023-02-25T09:55:24.436Z,99151.94
2023-02-25T09:58:09.016Z,99153.16
2023-02-25T10:00:57.285Z,99159.56
2023-02-25T10:03:51.725Z,99159.94
2023-02-25T10:06:30.216Z,99159.38
2023-02-25T10:09:17.781Z,99159.75
2023-02-25T10:12:19.400Z,99160.75
2023-02-25T10:15:06.437Z,99157.28
2023-02-25T10:18:00.880Z,99162.91
2023-02-25T10:20:50.253Z,99165.91
2023-02-25T10:23:39.878Z,99162.22
2023-02-25T10:26:19.858Z,99154.13
2023-02-25T10:28:55.435Z,99156.03
2023-02-25T10:31:24.207Z,99146.06
2023-02-25T10:33:54.237Z,99145.50
2023-02-25T10:36:29.341Z,99143.97
2023-02-25T10:38:58.047Z,99145.88
2023-02-25T10:41:30.118Z,99152.28
2023-02-25T10:43:58.627Z,99146.19
2023-02-25T10:46:35.134Z,99148.41
2023-02-25T10:49:16.397Z,99142.72
2023-02-25T10:52:10.642Z,99146.28
2023-02-25T10:54:53.369Z,99143.22
2023-02-25T10:57:34.625Z,99145.22
2023-02-25T11:00:13.405Z,99140.06
2023-02-25T11:02:44.304Z,99139.03
2023-02-25T11:05:43.768Z,99135.94
2023-02-25T11:08:34.389Z,99137.13
2023-02-25T11:11:13.569Z,99138.19
2023-02-25T11:13:41.700Z,99145.13
2023-02-25T11:16:14.056Z,99126.84
2023-02-25T11:18:42.429Z,99123.56
2023-02-25T11:21:13.727Z,99124.66
2023-02-25T11:23:49.131Z,99133.94
2023-02-25T11:26:38.254Z,99137.13
2023-02-25T11:29:14.910Z,99125.03
2023-02-25T11:31:44.276Z,99123.53
2023-02-25T11:34:28.090Z,99113.22
2023-02-25T11:37:00.249Z,99120.94
2023-02-25T11:39:31.868Z,99108.66
2023-02-25T11:42:23.406Z,99100.56
2023-02-25T11:45:02.257Z,99102.97
2023-02-25T11:47:33.911Z,99107.00
2023-02-25T11:50:57.276Z,99097.72
2023-02-25T11:53:45.253Z,99086.91
2023-02-25T11:56:13.158Z,99089.22
2023-02-25T11:59:03.156Z,99068.25
2023-02-25T12:02:00.307Z,99070.59
2023-02-25T12:04:34.356Z,99068.53
2023-02-25T12:07:08.553Z,99059.00
2023-02-25T12:10:07.030Z,99061.06
2023-02-25T12:12:57.290Z,99054.38
2023-02-25T12:15:57.696Z,99044.84
2023-02-25T12:18:52.985Z,99041.72
2023-02-25T12:21:50.519Z,99040.34
2023-02-25T12:24:59.660Z,99044.59
2023-02-25T12:28:08.806Z,99038.88
2023-02-25T12:30:42.383Z,99027.94
2023-02-25T12:33:32.107Z,99021.78
2023-02-25T12:36:30.129Z,99032.97
2023-02-25T12:39:25.946Z,99021.00
2023-02-25T12:41:59.788Z,99010.22
2023-02-25T12:44:39.311Z,99009.22
2023-02-25T12:47:41.008Z,99002.78
2023-02-25T12:50:27.150Z,99006.41
2023-02-25T12:53:18.808Z,99001.22
2023-02-25T12:56:34.224Z,98983.09
2023-02-25T12:59:20.874Z,98986.97
2023-02-25T13:02:12.485Z,98980.06
2023-02-25T13:05:17.072Z,98970.06
2023-02-25T13:08:12.653Z,98974.94
2023-02-25T13:11:00.682Z,98975.75
2023-02-25T13:14:14.124Z,98969.19
2023-02-25T13:17:04.674Z,98956.75
2023-02-25T13:20:00.660Z,98972.75
2023-02-25T13:22:36.394Z,98960.94
2023-02-25T13:25:23.565Z,98958.56
2023-02-25T13:28:01.004Z,98960.31
2023-02-25T13:30:58.332Z,98957.59
2023-02-25T13:33:53.145Z,98951.16
2023-02-25T13:36:53.173Z,98948.56
2023-02-25T13:39:44.838Z,98938.88
2023-02-25T13:42:54.474Z,98948.91
2023-02-25T13:45:28.603Z,98948.00
2023-02-25T13:48:17.382Z,98947.28
2023-02-25T13:51:08.249Z,98936.88
2023-02-25T13:54:00.715Z,98944.09
2023-02-25T13:57:18.125Z,98935.09
2023-02-25T14:00:24.090Z,98932.13
2023-02-25T14:03:15.082Z,98933.91
2023-02-25T14:06:12.814Z,98922.97
2023-02-25T14:09:02.215Z,98922.44
2023-02-25T14:11:37.844Z,98920.16
2023-02-25T14:14:19.517Z,98918.47
2023-02-25T14:17:09.813Z,98912.56
2023-02-25T14:19:44.927Z,98908.09
2023-02-25T14:22:36.888Z,98910.97
2023-02-25T14:25:13.497Z,98908.66
2023-02-25T14:28:00.302Z,98899.03
2023-02-25T14:30:43.881Z,98902.78
2023-02-25T14:33:19.422Z,98901.56
2023-02-25T14:36:02.856Z,98895.84
2023-02-25T14:39:08.503Z,98892.03
2023-02-25T14:41:49.511Z,98891.03
2023-02-25T14:44:27.332Z,98893.97
2023-02-25T14:47:01.179Z,98881.38
2023-02-25T14:49:32.562Z,98890.66
2023-02-25T14:52:41.934Z,98898.28
2023-02-25T14:55:46.192Z,98886.78
2023-02-25T14:58:26.359Z,98892.66
2023-02-25T15:01:14.917Z,98893.47
2023-02-25T15:04:30.790Z,98886.91
2023-02-25T15:07:44.801Z,98890.31
2023-02-25T15:10:36.061Z,98891.88
2023-02-25T15:13:31.736Z,98893.31
2023-02-25T15:16:02.611Z,98895.56
2023-02-25T15:19:25.178Z,98894.44
2023-02-25T15:22:18.770Z,98899.22
2023-02-25T15:24:47.975Z,98899.34
2023-02-25T15:27:38.263Z,98901.91
2023-02-25T15:30:12.165Z,98910.97
2023-02-25T15:32:54.873Z,98907.88
2023-02-25T15:35:35.286Z,98909.50
2023-02-25T15:38:08.750Z,98908.38
2023-02-25T15:40:51.129Z,98914.25
2023-02-25T15:43:18.822Z,98912.53
2023-02-25T15:46:08.934Z,98913.72
2023-02-25T15:48:39.231Z,98913.16
2023-02-25T15:51:31.954Z,98918.41
2023-02-25T15:54:00.026Z,98913.78
2023-02-25T15:56:47.583Z,98918.31
2023-02-25T15:59:55.894Z,98928.66
2023-02-25T16:02:27.228Z,98933.78
2023-02-25T16:05:02.489Z,98936.59
2023-02-25T16:07:37.993Z,98929.19
2023-02-25T16:10:31.758Z,98932.75
2023-02-25T16:13:01.280Z,98939.25
2023-02-25T16:15:35.477Z,98929.06
2023-02-25T16:18:15.685Z,98942.72
2023-02-25T16:20:48.447Z,98952.28
2023-02-25T16:23:17.945Z,98943.28
2023-02-25T16:26:14.186Z,98937.22
2023-02-25T16:29:06.494Z,98947.53
2023-02-25T16:32:09.853Z,98939.38
2023-02-25T16:34:52.340Z,98945.47
2023-02-25T16:37:28.256Z,98945.63
2023-02-25T16:39:58.298Z,98944.50
2023-02-25T16:42:26.793Z,98942.94
2023-02-25T16:45:02.244Z,98948.75
2023-02-25T16:47:33.494Z,98944.81
2023-02-25T16:50:11.796Z,98947.59
2023-02-25T16:52:45.927Z,98942.72
2023-02-25T16:55:21.394Z,98938.78
2023-02-25T16:58:14.812Z,98936.84
2023-02-25T17:00:52.668Z,98938.41
2023-02-25T17:03:22.112Z,98942.72
2023-02-25T17:06:18.184Z,98949.22
2023-02-25T17:08:48.457Z,98948.50
2023-02-25T17:11:18.985Z,98944.31
2023-02-25T17:13:50.454Z,98947.41
2023-02-25T17:16:30.758Z,98947.38
2023-02-25T17:19:05.575Z,98944.28
2023-02-25T17:21:38.405Z,98947.78
2023-02-25T17:24:11.974Z,98942.81
2023-02-25T17:26:42.459Z,98953.59
2023-02-25T17:29:15.626Z,98952.44
2023-02-25T17:31:52.876Z,98950.16
2023-02-25T17:34:31.297Z,98948.25
2023-02-25T17:37:03.600Z,98954.75
2023-02-25T17:39:31.813Z,98958.63
2023-02-25T17:42:00.457Z,98963.63
2023-02-25T17:44:38.446Z,98963.25
2023-02-25T17:47:09.865Z,98965.19
2023-02-25T17:49:38.798Z,98970.53
2023-02-25T17:52:32.198Z,98974.78
2023-02-25T17:55:04.509Z,98970.47
2023-02-25T17:57:34.006Z,98965.91
2023-02-25T18:00:24.586Z,98967.81
2023-02-25T18:03:19.629Z,98958.88
2023-02-25T18:05:55.990Z,98955.06
2023-02-25T18:08:26.784Z,98956.13
2023-02-25T18:10:58.221Z,98952.78
2023-02-25T18:13:34.073Z,98956.97
2023-02-25T18:16:29.552Z,98956.19
2023-02-25T18:19:00.014Z,98954.69
2023-02-25T18:21:29.030Z,98956.59
2023-02-25T18:23:59.441Z,98954.31
2023-02-25T18:26:27.563Z,98952.38
2023-02-25T18:28:57.918Z,98952.78
2023-02-25T18:31:25.815Z,98953.91
2023-02-25T18:33:55.207Z,98949.28
2023-02-25T18:36:27.032Z,98946.59
2023-02-25T18:39:00.907Z,98948.91
2023-02-25T18:41:28.822Z,98939.75
2023-02-25T18:43:56.942Z,98950.00
2023-02-25T18:46:24.958Z,98946.53
2023-02-25T18:48:53.310Z,98942.72
2023-02-25T18:51:21.068Z,98944.97
2023-02-25T18:53:49.130Z,98941.47
2023-02-25T18:56:17.701Z,98938.75
2023-02-25T18:58:45.945Z,98924.94
2023-02-25T19:01:23.364Z,98931.78
2023-02-25T19:03:52.375Z,98928.38
2023-02-25T19:06:20.477Z,98930.78
2023-02-25T19:08:49.116Z,98925.81
2023-02-25T19:11:37.087Z,98937.22
2023-02-25T19:14:06.852Z,98934.59
2023-02-25T19:16:34.975Z,98939.91
2023-02-25T19:19:03.233Z,98941.09
2023-02-25T19:21:31.115Z,98942.69
2023-02-25T19:23:59.219Z,98936.09
2023-02-25T19:26:27.284Z,98937.25
2023-02-25T19:28:55.745Z,98937.97
2023-02-25T19:31:23.600Z,98936.03
2023-02-25T19:33:51.660Z,98945.69
2023-02-25T19:36:19.409Z,98946.84
2023-02-25T19:38:47.429Z,98939.09
2023-02-25T19:41:15.268Z,98943.78
2023-02-25T19:43:43.406Z,98940.38
2023-02-25T19:46:11.317Z,98934.97
2023-02-25T19:48:39.533Z,98934.22
2023-02-25T19:51:09.564Z,98933.09
2023-02-25T19:53:37.790Z,98939.53
2023-02-25T19:56:08.029Z,98944.91
2023-02-25T19:58:36.262Z,98937.97
2023-02-25T20:01:08.918Z,98944.84
2023-02-25T20:03:37.203Z,98941.38
2023-02-25T20:06:12.274Z,98935.75
2023-02-25T20:08:41.437Z,98935.66
2023-02-25T20:11:10.802Z,98937.56
2023-02-25T20:13:38.903Z,98942.56
2023-02-25T20:16:07.142Z,98937.47
2023-02-25T20:18:35.777Z,98934.03
2023-02-25T20:21:04.327Z,98931.41
2023-02-25T20:23:32.440Z,98937.53
2023-02-25T20:26:08.661Z,98938.69
2023-02-25T20:28:37.160Z,98936.34
2023-02-25T20:31:14.985Z,98929.00
2023-02-25T20:33:43.869Z,98924.13
2023-02-25T20:36:24.362Z,98920.25
2023-02-25T20:39:13.384Z,98917.03
2023-02-25T20:41:45.317Z,98915.22
2023-02-25T20:44:14.554Z,98910.13
2023-02-25T20:46:43.322Z,98914.16
2023-02-25T20:49:14.717Z,98911.41
2023-02-25T20:51:44.932Z,98914.00
2023-02-25T20:54:15.166Z,98909.94
2023-02-25T20:56:43.519Z,98907.59
2023-02-25T20:59:13.466Z,98911.78
2023-02-25T21:01:42.628Z,98903.44
2023-02-25T21:04:11.384Z,98905.25
2023-02-25T21:06:39.736Z,98905.38
2023-02-25T21:09:08.279Z,98895.38
2023-02-25T21:11:36.037Z,98894.34
2023-02-25T21:14:04.284Z,98892.75
2023-02-25T21:16:32.556Z,98887.41
2023-02-25T21:19:01.312Z,98884.53
2023-02-25T21:21:31.750Z,98889.75
2023-02-25T21:23:59.827Z,98882.38
2023-02-25T21:26:27.518Z,98880.50
2023-02-25T21:28:55.628Z,98874.81
2023-02-25T21:31:23.669Z,98871.66
2023-02-25T21:33:52.018Z,98874.09
2023-02-25T21:36:19.909Z,98877.66
2023-02-25T21:38:47.964Z,98874.16
2023-02-25T21:41:16.980Z,98869.84
2023-02-25T21:43:45.382Z,98864.75
2023-02-25T21:46:16.614Z,98862.88
2023-02-25T21:48:47.486Z,98854.16
2023-02-25T21:51:26.255Z,98852.84
2023-02-25T21:53:56.691Z,98846.75
2023-02-25T21:56:26.143Z,98844.41
2023-02-25T21:58:59.940Z,98839.38
2023-02-25T22:01:30.824Z,98841.91
2023-02-25T22:03:59.426Z,98838.69
2023-02-25T22:06:28.378Z,98836.19
2023-02-25T22:08:57.536Z,98838.72
2023-02-25T22:11:30.915Z,98834.81
2023-02-25T22:14:01.107Z,98837.28
2023-02-25T22:16:29.500Z,98828.66
2023-02-25T22:18:58.857Z,98830.09
2023-02-25T22:21:32.440Z,98821.84
2023-02-25T22:24:03.035Z,98830.00
2023-02-25T22:26:33.124Z,98822.88
2023-02-25T22:29:04.978Z,98819.97
2023-02-25T22:31:34.309Z,98815.25
2023-02-25T22:34:03.080Z,98818.06
2023-02-25T22:36:30.977Z,98817.94
2023-02-25T22:38:59.062Z,98813.19
2023-02-25T22:41:29.314Z,98823.50
2023-02-25T22:43:58.847Z,98823.97
2023-02-25T22:46:29.866Z,98817.19
2023-02-25T22:48:58.884Z,98819.22
2023-02-25T22:51:32.564Z,98813.34
2023-02-25T22:54:00.986Z,98814.75
2023-02-25T22:56:29.197Z,98812.78
2023-02-25T22:58:57.331Z,98818.16
2023-02-25T23:01:26.864Z,98814.88
2023-02-25T23:03:56.143Z,98817.31
2023-02-25T23:06:37.450Z,98824.09
2023-02-25T23:09:11.620Z,98813.69
2023-02-25T23:11:42.133Z,98817.00
2023-02-25T23:14:10.969Z,98818.69
2023-02-25T23:16:42.222Z,98812.66
2023-02-25T23:19:14.164Z,98810.03
2023-02-25T23:21:42.058Z,98810.53
2023-02-25T23:24:16.469Z,98813.59
2023-02-25T23:26:45.565Z,98818.91
2023-02-25T23:29:13.845Z,98810.91
2023-02-25T23:31:47.401Z,98813.97
2023-02-25T23:34:23.620Z,98815.03
2023-02-25T23:36:56.759Z,98805.97
2023-02-25T23:39:25.647Z,98801.03
2023-02-25T23:41:53.472Z,98804.63
2023-02-25T23:44:21.569Z,98803.28
2023-02-25T23:46:49.307Z,98797.94
2023-02-25T23:49:18.131Z,98797.91
2023-02-25T23:51:47.549Z,98801.06
2023-02-25T23:54:19.216Z,98807.84
2023-02-25T23:56:47.339Z,98804.25
2023-02-25T23:59:16.424Z,98805.44
